createdAt,value
2022-11-18T00:01:25.531Z,2.80
2022-11-18T00:03:54.961Z,2.13
2022-11-18T00:06:24.410Z,1.90
2022-11-18T00:08:52.912Z,2.40
2022-11-18T00:11:36.299Z,2.97
2022-11-18T00:14:20.398Z,3.20
2022-11-18T00:16:49.836Z,3.50
2022-11-18T00:19:20.006Z,3.83
2022-11-18T00:21:48.411Z,2.43
2022-11-18T00:24:16.809Z,2.03
2022-11-18T00:26:44.892Z,2.90
2022-11-18T00:29:13.621Z,4.80
2022-11-18T00:31:41.659Z,2.30
2022-11-18T00:34:13.030Z,2.37
2022-11-18T00:36:43.469Z,2.13
2022-11-18T00:39:12.669Z,2.40
2022-11-18T00:41:58.383Z,2.80
2022-11-18T00:44:26.610Z,2.40
2022-11-18T00:46:54.708Z,2.37
2022-11-18T00:49:22.740Z,3.00
2022-11-18T00:51:52.215Z,2.80
2022-11-18T00:54:20.413Z,2.67
2022-11-18T00:56:48.479Z,3.33
2022-11-18T00:59:17.075Z,2.87
2022-11-18T01:01:45.562Z,2.60
2022-11-18T01:04:13.937Z,2.73
2022-11-18T01:06:42.051Z,2.57
2022-11-18T01:09:11.448Z,2.50
2022-11-18T01:11:57.095Z,2.70
2022-11-18T01:14:25.775Z,2.50
2022-11-18T01:16:56.158Z,3.17
2022-11-18T01:19:24.926Z,2.90
2022-11-18T01:21:53.027Z,2.60
2022-11-18T01:24:22.423Z,2.47
2022-11-18T01:26:50.486Z,2.07
2022-11-18T01:29:18.963Z,2.73
2022-11-18T01:32:09.117Z,2.60
2022-11-18T01:34:35.385Z,2.23
2022-11-18T01:37:03.426Z,2.53
2022-11-18T01:39:33.001Z,2.70
2022-11-18T01:42:01.014Z,2.27
2022-11-18T01:45:20.757Z,2.47
2022-11-18T01:47:53.063Z,2.63
2022-11-18T01:50:23.000Z,2.20
2022-11-18T01:52:52.221Z,2.37
2022-11-18T01:55:25.638Z,1.93
2022-11-18T01:58:03.032Z,2.30
2022-11-18T02:00:31.152Z,2.40
2022-11-18T02:03:00.095Z,2.43
2022-11-18T02:05:29.225Z,3.07
2022-11-18T02:07:57.773Z,1.90
2022-11-18T02:10:27.139Z,2.50
2022-11-18T02:12:56.309Z,2.83
2022-11-18T02:15:34.599Z,2.93
2022-11-18T02:18:10.234Z,3.23
2022-11-18T02:20:41.965Z,3.77
2022-11-18T02:24:00.081Z,2.93
2022-11-18T02:26:53.642Z,4.33
2022-11-18T02:29:26.248Z,4.60
2022-11-18T02:31:59.631Z,5.73
2022-11-18T02:34:40.949Z,3.33
2022-11-18T02:37:16.557Z,8.00
2022-11-18T02:39:49.715Z,4.27
2022-11-18T02:42:18.279Z,3.57
2022-11-18T02:44:53.823Z,2.40
2022-11-18T02:47:23.760Z,2.50
2022-11-18T02:49:56.187Z,3.37
2022-11-18T02:52:26.786Z,2.43
2022-11-18T02:54:56.806Z,2.80
2022-11-18T02:57:27.336Z,2.30
2022-11-18T02:59:56.818Z,2.80
2022-11-18T03:07:49.828Z,2.20
2022-11-18T03:10:18.723Z,2.90
2022-11-18T03:12:53.432Z,2.40
2022-11-18T03:15:34.051Z,2.27
2022-11-18T03:18:12.235Z,2.23
2022-11-18T03:20:48.783Z,2.53
2022-11-18T03:23:23.857Z,2.43
2022-11-18T03:25:55.766Z,3.67
2022-11-18T03:28:30.925Z,2.23
2022-11-18T03:31:04.550Z,2.53
2022-11-18T03:33:36.201Z,2.30
2022-11-18T03:36:07.059Z,2.30
2022-11-18T03:38:39.227Z,2.03
2022-11-18T03:41:11.624Z,2.40
2022-11-18T03:43:43.532Z,2.27
2022-11-18T03:46:17.780Z,2.67
2022-11-18T03:48:51.177Z,2.50
2022-11-18T03:51:23.263Z,2.37
2022-11-18T03:53:57.800Z,2.17
2022-11-18T03:56:31.289Z,2.37
2022-11-18T03:59:05.699Z,2.33
2022-11-18T04:01:41.235Z,2.50
2022-11-18T04:04:10.483Z,2.73
2022-11-18T04:06:44.129Z,2.40
2022-11-18T04:09:16.584Z,2.30
2022-11-18T04:12:04.451Z,2.27
2022-11-18T04:14:34.515Z,1.97
2022-11-18T04:17:09.102Z,2.03
2022-11-18T04:19:37.487Z,2.40
2022-11-18T04:22:05.586Z,2.30
2022-11-18T04:24:33.635Z,2.43
2022-11-18T04:27:02.674Z,2.00
2022-11-18T04:29:31.226Z,2.13
2022-11-18T04:31:59.505Z,2.30
2022-11-18T04:34:29.333Z,2.00
2022-11-18T04:36:57.518Z,2.80
2022-11-18T04:39:25.640Z,2.10
2022-11-18T04:41:56.545Z,2.67
2022-11-18T04:44:25.871Z,2.67
2022-11-18T04:46:54.660Z,2.27
2022-11-18T04:49:23.565Z,1.97
2022-11-18T04:51:53.771Z,2.30
2022-11-18T04:54:22.723Z,2.33
2022-11-18T04:56:50.902Z,2.10
2022-11-18T04:59:21.412Z,2.40
2022-11-18T05:01:50.021Z,2.40
2022-11-18T05:04:20.303Z,2.70
2022-11-18T05:06:48.798Z,2.47
2022-11-18T05:09:19.285Z,2.43
2022-11-18T05:12:04.910Z,2.50
2022-11-18T05:14:33.448Z,2.40
2022-11-18T05:17:03.264Z,2.30
2022-11-18T05:19:31.436Z,2.80
2022-11-18T05:21:59.725Z,3.07
2022-11-18T05:24:29.120Z,3.53
2022-11-18T05:26:57.460Z,2.53
2022-11-18T05:29:26.300Z,3.07
2022-11-18T05:31:54.374Z,3.63
2022-11-18T05:34:22.595Z,4.47
2022-11-18T05:36:50.865Z,4.17
2022-11-18T05:39:19.942Z,8.10
2022-11-18T05:42:06.747Z,8.77
2022-11-18T05:44:34.780Z,7.27
2022-11-18T05:47:02.896Z,7.80
2022-11-18T05:49:30.948Z,7.10
2022-11-18T05:51:59.044Z,5.57
2022-11-18T05:54:27.623Z,4.00
2022-11-18T05:56:57.119Z,3.50
2022-11-18T05:59:25.128Z,2.50
2022-11-18T06:01:58.966Z,2.27
2022-11-18T06:04:33.188Z,2.83
2022-11-18T06:07:07.211Z,2.33
2022-11-18T06:09:39.330Z,2.90
2022-11-18T06:12:10.358Z,2.67
2022-11-18T06:14:43.246Z,2.90
2022-11-18T06:17:15.668Z,3.90
2022-11-18T06:19:43.788Z,2.93
2022-11-18T06:22:12.152Z,3.23
2022-11-18T06:24:40.731Z,3.27
2022-11-18T06:27:10.318Z,2.90
2022-11-18T06:29:38.388Z,2.57
2022-11-18T06:32:06.736Z,3.00
2022-11-18T06:34:41.038Z,3.00
2022-11-18T06:37:16.853Z,3.30
2022-11-18T06:39:45.374Z,3.60
2022-11-18T06:42:35.398Z,3.40
2022-11-18T06:45:02.645Z,3.30
2022-11-18T06:47:30.753Z,4.10
2022-11-18T06:49:58.826Z,3.43
2022-11-18T06:52:26.927Z,3.67
2022-11-18T06:54:54.954Z,3.73
2022-11-18T06:57:24.385Z,3.10
2022-11-18T06:59:53.849Z,3.23
2022-11-18T07:02:24.553Z,3.40
2022-11-18T07:04:52.599Z,3.53
2022-11-18T07:07:20.737Z,3.13
2022-11-18T07:09:48.819Z,3.70
2022-11-18T07:12:16.833Z,3.23
2022-11-18T07:14:46.381Z,3.10
2022-11-18T07:17:14.718Z,3.57
2022-11-18T07:19:42.731Z,3.53
2022-11-18T07:22:10.737Z,3.47
2022-11-18T07:24:38.978Z,3.50
2022-11-18T07:27:07.009Z,3.90
2022-11-18T07:29:35.152Z,3.87
2022-11-18T07:32:04.571Z,3.43
2022-11-18T07:34:32.622Z,3.33
2022-11-18T07:37:00.600Z,3.77
2022-11-18T07:39:28.864Z,3.40
2022-11-18T07:41:56.968Z,3.83
2022-11-18T07:44:25.015Z,3.60
2022-11-18T07:46:53.075Z,3.70
2022-11-18T07:49:22.480Z,3.20
2022-11-18T07:51:50.751Z,3.73
2022-11-18T07:54:18.918Z,3.80
2022-11-18T07:56:47.014Z,4.30
2022-11-18T07:59:15.038Z,3.83
2022-11-18T08:01:43.160Z,4.00
2022-11-18T08:04:13.232Z,3.23
2022-11-18T08:06:42.748Z,3.60
2022-11-18T08:09:11.323Z,3.90
2022-11-18T08:11:40.891Z,3.20
2022-11-18T08:14:09.077Z,3.87
2022-11-18T08:16:37.209Z,4.53
2022-11-18T08:19:05.281Z,3.77
2022-11-18T08:21:33.339Z,4.03
2022-11-18T08:24:02.787Z,4.10
2022-11-18T08:26:30.872Z,4.40
2022-11-18T08:28:59.066Z,3.87
2022-11-18T08:31:29.003Z,4.83
2022-11-18T08:33:57.245Z,4.30
2022-11-18T08:36:27.386Z,3.63
2022-11-18T08:38:56.786Z,3.80
2022-11-18T08:41:32.373Z,4.20
2022-11-18T08:44:00.944Z,4.77
2022-11-18T08:46:29.178Z,4.63
2022-11-18T08:48:57.305Z,3.87
2022-11-18T08:51:25.700Z,3.73
2022-11-18T08:53:53.824Z,3.97
2022-11-18T08:56:23.857Z,4.77
2022-11-18T08:58:54.382Z,4.13
2022-11-18T09:01:22.627Z,3.90
2022-11-18T09:03:51.041Z,4.47
2022-11-18T09:06:20.891Z,3.67
2022-11-18T09:08:49.041Z,4.30
2022-11-18T09:11:18.808Z,4.23
2022-11-18T09:14:32.615Z,4.30
2022-11-18T09:16:36.742Z,4.60
2022-11-18T09:19:24.882Z,4.20
2022-11-18T09:21:55.316Z,5.00
2022-11-18T09:24:23.379Z,4.63
2022-11-18T09:26:53.563Z,4.90
2022-11-18T09:29:25.673Z,4.60
2022-11-18T09:31:55.522Z,3.50
2022-11-18T09:34:24.213Z,4.37
2022-11-18T09:36:55.926Z,3.50
2022-11-18T09:39:24.746Z,4.37
2022-11-18T09:42:02.261Z,4.00
2022-11-18T09:44:45.440Z,3.30
2022-11-18T09:47:24.859Z,3.50
2022-11-18T09:49:55.229Z,3.53
2022-11-18T09:52:32.717Z,3.40
2022-11-18T09:55:07.353Z,3.60
2022-11-18T09:57:39.644Z,3.63
2022-11-18T10:00:14.895Z,3.93
2022-11-18T10:03:01.850Z,3.67
2022-11-18T10:05:31.378Z,3.10
2022-11-18T10:08:16.450Z,3.37
2022-11-18T10:10:52.769Z,2.93
2022-11-18T10:13:33.545Z,3.00
2022-11-18T10:16:10.719Z,2.93
2022-11-18T10:19:04.835Z,3.13
2022-11-18T10:21:43.345Z,3.03
2022-11-18T10:24:18.775Z,3.13
2022-11-18T10:26:47.254Z,2.87
2022-11-18T10:29:15.292Z,2.80
2022-11-18T10:32:04.587Z,2.73
2022-11-18T10:34:36.114Z,2.93
2022-11-18T10:37:06.449Z,2.90
2022-11-18T10:39:34.861Z,3.00
2022-11-18T10:42:05.042Z,3.23
2022-11-18T10:44:36.285Z,2.83
2022-11-18T10:47:27.594Z,3.00
2022-11-18T10:49:59.035Z,3.10
2022-11-18T10:52:28.968Z,2.80
2022-11-18T10:55:23.405Z,2.90
2022-11-18T10:58:01.795Z,2.53
2022-11-18T11:00:46.787Z,2.57
2022-11-18T11:03:32.723Z,2.63
2022-11-18T11:06:33.619Z,2.90
2022-11-18T11:09:08.442Z,3.10
2022-11-18T11:11:40.020Z,2.90
2022-11-18T11:14:17.264Z,2.67
2022-11-18T11:16:51.681Z,2.67
2022-11-18T11:19:24.222Z,3.23
2022-11-18T11:21:53.964Z,3.00
2022-11-18T11:24:25.983Z,3.00
2022-11-18T11:30:10.316Z,2.70
2022-11-18T11:32:53.550Z,3.20
2022-11-18T11:35:24.815Z,2.80
2022-11-18T11:37:58.844Z,2.77
2022-11-18T11:40:34.831Z,3.40
2022-11-18T11:43:25.268Z,2.90
2022-11-18T11:46:17.816Z,3.30
2022-11-18T11:48:57.805Z,3.33
2022-11-18T11:51:33.440Z,3.20
2022-11-18T11:54:39.706Z,2.77
2022-11-18T11:57:19.923Z,2.67
2022-11-18T11:59:59.748Z,2.70
2022-11-18T12:02:50.358Z,2.90
2022-11-18T12:05:25.426Z,3.20
2022-11-18T12:07:57.635Z,2.70
2022-11-18T12:10:35.370Z,2.97
2022-11-18T12:13:22.076Z,2.47
2022-11-18T12:15:57.077Z,3.00
2022-11-18T12:18:30.585Z,3.40
2022-11-18T12:20:58.798Z,3.07
2022-11-18T12:23:28.228Z,2.67
2022-11-18T12:26:06.710Z,2.70
2022-11-18T12:28:37.983Z,2.73
2022-11-18T12:31:29.330Z,2.63
2022-11-18T12:34:00.081Z,3.03
2022-11-18T12:36:29.236Z,2.60
2022-11-18T12:38:58.397Z,3.60
2022-11-18T12:42:13.815Z,2.27
2022-11-18T12:44:43.303Z,2.67
2022-11-18T12:47:12.595Z,2.83
2022-11-18T12:50:12.738Z,2.87
2022-11-18T12:52:52.652Z,2.67
2022-11-18T12:55:27.714Z,2.83
2022-11-18T12:57:57.125Z,2.40
2022-11-18T13:00:52.274Z,1.90
2022-11-18T13:03:26.005Z,2.30
2022-11-18T13:06:06.634Z,2.00
2022-11-18T13:08:35.230Z,2.67
2022-11-18T13:11:28.998Z,2.20
2022-11-18T13:14:16.629Z,2.40
2022-11-18T13:17:03.162Z,2.83
2022-11-18T13:19:31.199Z,2.17
2022-11-18T13:22:18.200Z,3.20
2022-11-18T13:24:48.081Z,2.40
2022-11-18T13:27:27.201Z,2.37
2022-11-18T13:30:04.219Z,2.80
2022-11-18T13:32:32.354Z,2.60
2022-11-18T13:35:11.960Z,2.43
2022-11-18T13:37:51.237Z,2.80
2022-11-18T13:40:25.119Z,2.87
2022-11-18T13:42:53.200Z,3.03
2022-11-18T13:45:25.141Z,3.17
2022-11-18T13:47:55.728Z,2.93
2022-11-18T13:50:27.850Z,2.80
2022-11-18T13:53:07.081Z,2.70
2022-11-18T13:55:40.558Z,3.37
2022-11-18T13:58:28.131Z,3.50
2022-11-18T14:01:00.562Z,3.50
2022-11-18T14:03:33.676Z,2.97
2022-11-18T14:06:02.483Z,3.47
2022-11-18T14:08:32.019Z,3.43
2022-11-18T14:11:00.897Z,3.50
2022-11-18T14:13:30.442Z,3.57
2022-11-18T14:16:01.879Z,3.10
2022-11-18T14:18:33.539Z,3.93
2022-11-18T14:21:02.908Z,3.27
2022-11-18T14:23:33.452Z,3.80
2022-11-18T14:26:03.757Z,3.77
2022-11-18T14:28:34.016Z,3.73
2022-11-18T14:31:22.729Z,4.33
2022-11-18T14:34:06.921Z,3.90
2022-11-18T14:36:34.966Z,3.90
2022-11-18T14:41:51.044Z,3.67
2022-11-18T14:44:20.502Z,3.77
2022-11-18T14:46:52.333Z,3.80
2022-11-18T14:49:23.561Z,4.47
2022-11-18T14:51:52.279Z,4.57
2022-11-18T14:54:26.505Z,3.93
2022-11-18T14:56:57.645Z,4.10
2022-11-18T14:59:25.907Z,4.07
2022-11-18T15:01:56.450Z,3.80
2022-11-18T15:04:25.332Z,5.33
2022-11-18T15:06:53.610Z,4.60
2022-11-18T15:09:21.925Z,4.50
2022-11-18T15:11:50.014Z,5.27
2022-11-18T15:14:18.223Z,4.47
2022-11-18T15:16:46.572Z,4.07
2022-11-18T15:19:17.338Z,4.67
2022-11-18T15:21:46.369Z,4.60
2022-11-18T15:24:14.468Z,5.33
2022-11-18T15:26:44.453Z,4.80
2022-11-18T15:29:17.357Z,5.03
2022-11-18T15:31:45.532Z,5.50
2022-11-18T15:34:15.107Z,5.07
2022-11-18T15:36:43.174Z,5.03
2022-11-18T15:39:11.812Z,5.47
2022-11-18T15:41:41.445Z,4.90
2022-11-18T15:44:11.916Z,4.97
2022-11-18T15:46:40.384Z,4.50
2022-11-18T15:49:10.004Z,4.57
2022-11-18T15:51:40.287Z,5.30
2022-11-18T15:54:08.333Z,5.67
2022-11-18T15:56:37.283Z,4.83
2022-11-18T15:59:07.140Z,5.40
2022-11-18T16:01:37.378Z,4.57
2022-11-18T16:04:06.170Z,4.40
2022-11-18T16:06:34.248Z,4.33
2022-11-18T16:09:04.676Z,4.57
2022-11-18T16:11:50.814Z,5.50
2022-11-18T16:14:20.761Z,4.33
2022-11-18T16:16:50.825Z,3.70
2022-11-18T16:19:20.837Z,3.53
2022-11-18T16:21:50.968Z,4.60
2022-11-18T16:24:22.125Z,4.40
2022-11-18T16:26:51.023Z,4.20
2022-11-18T16:29:20.834Z,4.17
2022-11-18T16:31:52.397Z,3.97
2022-11-18T16:34:22.601Z,4.57
2022-11-18T16:36:53.083Z,4.93
2022-11-18T16:39:25.727Z,4.43
2022-11-18T16:41:55.316Z,4.33
2022-11-18T16:44:23.747Z,4.50
2022-11-18T16:46:53.200Z,4.30
2022-11-18T16:49:22.801Z,4.60
2022-11-18T16:51:52.805Z,4.57
2022-11-18T16:54:24.243Z,5.27
2022-11-18T16:56:53.744Z,4.97
2022-11-18T16:59:23.396Z,5.47
2022-11-18T17:01:52.413Z,5.23
2022-11-18T17:04:21.212Z,5.30
2022-11-18T17:06:49.580Z,5.23
2022-11-18T17:09:20.134Z,5.60
2022-11-18T17:11:50.134Z,5.40
2022-11-18T17:14:19.520Z,5.10
2022-11-18T17:16:47.642Z,5.03
2022-11-18T17:19:16.742Z,6.00
2022-11-18T17:21:45.596Z,5.90
2022-11-18T17:24:16.078Z,5.60
2022-11-18T17:26:45.889Z,4.90
2022-11-18T17:29:16.071Z,5.47
2022-11-18T17:31:44.543Z,5.03
2022-11-18T17:34:13.941Z,4.67
2022-11-18T17:36:42.501Z,5.30
2022-11-18T17:39:12.037Z,5.57
2022-11-18T17:41:58.317Z,5.27
2022-11-18T17:44:28.722Z,5.53
2022-11-18T17:46:56.789Z,5.10
2022-11-18T17:49:24.879Z,4.40
2022-11-18T17:51:52.990Z,4.63
2022-11-18T17:54:22.315Z,4.60
2022-11-18T17:56:52.259Z,5.03
2022-11-18T17:59:20.649Z,4.63
2022-11-18T18:01:55.667Z,4.83
2022-11-18T18:04:25.598Z,4.90
2022-11-18T18:06:55.064Z,4.40
2022-11-18T18:09:30.089Z,4.10
2022-11-18T18:11:59.806Z,5.07
2022-11-18T18:14:26.846Z,4.67
2022-11-18T18:16:56.381Z,4.57
2022-11-18T18:19:25.299Z,4.10
2022-11-18T18:21:54.160Z,4.57
2022-11-18T18:24:22.623Z,3.77
2022-11-18T18:26:51.106Z,4.23
2022-11-18T18:29:19.194Z,3.87
2022-11-18T18:31:47.256Z,4.47
2022-11-18T18:34:17.294Z,5.37
2022-11-18T18:36:45.788Z,7.90
2022-11-18T18:39:13.867Z,8.67
2022-11-18T18:41:41.895Z,8.70
2022-11-18T18:44:15.224Z,8.83
2022-11-18T18:46:45.321Z,10.03
2022-11-18T18:49:14.853Z,10.53
2022-11-18T18:51:46.133Z,11.57
2022-11-18T18:54:15.827Z,11.50
2022-11-18T18:56:44.047Z,12.20
2022-11-18T18:59:12.475Z,12.73
2022-11-18T19:01:40.610Z,12.63
2022-11-18T19:04:12.431Z,12.53
2022-11-18T19:06:59.743Z,13.50
2022-11-18T19:09:29.974Z,15.00
2022-11-18T19:12:15.677Z,13.03
2022-11-18T19:14:43.869Z,14.20
2022-11-18T19:17:12.970Z,13.17
2022-11-18T19:19:59.885Z,13.60
2022-11-18T19:22:31.274Z,13.13
2022-11-18T19:25:01.948Z,13.37
2022-11-18T19:27:30.236Z,13.70
2022-11-18T19:29:58.398Z,13.93
2022-11-18T19:32:26.482Z,13.57
2022-11-18T19:34:54.535Z,15.07
2022-11-18T19:37:22.717Z,16.30
2022-11-18T19:39:50.837Z,14.77
2022-11-18T19:42:20.245Z,14.23
2022-11-18T19:44:48.304Z,14.63
2022-11-18T19:47:16.418Z,13.23
2022-11-18T19:49:44.579Z,14.50
2022-11-18T19:52:12.879Z,13.73
2022-11-18T19:54:41.045Z,13.60
2022-11-18T19:57:09.029Z,13.03
2022-11-18T19:59:38.740Z,13.03
2022-11-18T20:02:07.413Z,11.67
2022-11-18T20:04:35.793Z,11.63
2022-11-18T20:07:03.914Z,12.67
2022-11-18T20:09:32.364Z,12.47
2022-11-18T20:12:00.525Z,11.40
2022-11-18T20:14:28.678Z,11.93
2022-11-18T20:16:58.329Z,12.83
2022-11-18T20:19:26.459Z,10.90
2022-11-18T20:21:54.702Z,11.33
2022-11-18T20:24:22.810Z,10.53
2022-11-18T20:26:50.867Z,11.43
2022-11-18T20:29:19.131Z,11.50
2022-11-18T20:31:47.358Z,11.53
2022-11-18T20:34:16.744Z,11.63
2022-11-18T20:36:46.467Z,10.80
2022-11-18T20:39:16.063Z,10.07
2022-11-18T20:42:04.380Z,10.53
2022-11-18T20:44:32.512Z,10.03
2022-11-18T20:47:00.659Z,10.70
2022-11-18T20:49:30.150Z,10.37
2022-11-18T20:51:58.172Z,10.93
2022-11-18T20:54:26.653Z,9.73
2022-11-18T20:56:54.688Z,11.43
2022-11-18T20:59:22.705Z,11.33
2022-11-18T21:01:50.768Z,10.97
2022-11-18T21:04:18.759Z,10.77
2022-11-18T21:06:48.450Z,11.27
2022-11-18T21:09:17.606Z,11.10
2022-11-18T21:11:45.760Z,11.10
2022-11-18T21:14:23.929Z,11.47
2022-11-18T21:16:53.322Z,11.10
2022-11-18T21:19:21.634Z,12.30
2022-11-18T21:21:52.631Z,11.43
2022-11-18T21:24:23.040Z,11.20
2022-11-18T21:26:54.439Z,12.67
2022-11-18T21:29:23.827Z,11.50
2022-11-18T21:31:52.601Z,10.70
2022-11-18T21:34:21.581Z,10.43
2022-11-18T21:36:54.597Z,10.80
2022-11-18T21:39:23.684Z,10.97
2022-11-18T21:41:55.834Z,9.80
2022-11-18T21:44:24.924Z,9.40
2022-11-18T21:46:53.083Z,10.23
2022-11-18T21:49:21.650Z,10.67
2022-11-18T21:51:51.521Z,11.20
2022-11-18T21:54:19.626Z,9.73
2022-11-18T21:56:47.659Z,9.07
2022-11-18T21:59:15.734Z,9.33
2022-11-18T22:01:43.899Z,8.63
2022-11-18T22:04:32.763Z,8.17
2022-11-18T22:07:02.320Z,8.97
2022-11-18T22:09:36.108Z,9.13
2022-11-18T22:12:06.445Z,11.63
2022-11-18T22:14:34.425Z,9.60
2022-11-18T22:17:02.437Z,8.53
2022-11-18T22:19:30.736Z,8.97
2022-11-18T22:21:58.723Z,8.17
2022-11-18T22:24:28.100Z,8.97
2022-11-18T22:26:56.161Z,7.90
2022-11-18T22:29:26.011Z,8.93
2022-11-18T22:31:54.329Z,8.90
2022-11-18T22:34:22.483Z,8.53
2022-11-18T22:36:50.533Z,10.43
2022-11-18T22:39:19.065Z,10.37
2022-11-18T22:42:11.571Z,9.90
2022-11-18T22:44:39.597Z,9.17
2022-11-18T22:47:07.571Z,9.13
2022-11-18T22:49:35.602Z,10.47
2022-11-18T22:52:03.690Z,10.57
2022-11-18T22:54:38.849Z,10.67
2022-11-18T22:57:09.118Z,10.93
2022-11-18T22:59:37.287Z,9.83
2022-11-18T23:02:05.558Z,10.00
2022-11-18T23:04:33.566Z,10.90
2022-11-18T23:07:01.615Z,11.07
2022-11-18T23:09:29.811Z,9.93
2022-11-18T23:12:15.297Z,9.70
2022-11-18T23:14:44.765Z,10.70
2022-11-18T23:17:12.830Z,10.40
2022-11-18T23:19:43.745Z,11.00
2022-11-18T23:22:12.144Z,9.13
2022-11-18T23:24:40.263Z,11.17
2022-11-18T23:27:08.332Z,11.30
2022-11-18T23:29:36.441Z,11.13
2022-11-18T23:32:06.312Z,10.00
2022-11-18T23:34:34.306Z,9.77
2022-11-18T23:37:02.458Z,9.70
2022-11-18T23:39:30.585Z,10.43
2022-11-18T23:41:58.630Z,10.77
2022-11-18T23:44:40.531Z,10.60
2022-11-18T23:47:09.962Z,9.80
2022-11-18T23:49:37.981Z,9.23
2022-11-18T23:52:06.201Z,9.97
2022-11-18T23:54:34.267Z,9.17
2022-11-18T23:57:04.496Z,10.53
2022-11-18T23:59:33.040Z,10.33
